Time,TemperatureF,DewpointF,PressureIn,WindDirection,WindDirectionDegrees,WindSpeedMPH,WindSpeedGustMPH,Humidity,HourlyPrecipIn,Conditions,Clouds,dailyrainin,SoftwareType,DateUTC
2013-07-01 00:02:00,56.1,47.2,30.07,NNW,337,2.7,-999.0,72,-99.99,,,0.00,Acu-Link.com,2013-07-01 06:02:00,
2013-07-01 00:17:00,54.5,46.7,30.07,NNW,337,3.2,-999.0,75,-99.99,,,0.00,Acu-Link.com,2013-07-01 06:17:00,
2013-07-01 00:32:00,54.9,47.1,30.08,North,0,3.2,-999.0,75,-99.99,,,0.00,Acu-Link.com,2013-07-01 06:32:00,
2013-07-01 00:48:00,53.8,46.8,30.10,NE,45,1.7,-999.0,77,-99.99,,,0.00,Acu-Link.com,2013-07-01 06:48:00,
2013-07-01 01:03:00,51.8,47.1,30.09,NNW,337,1.7,-999.0,84,-99.99,,,0.00,Acu-Link.com,2013-07-01 07:03:00,
2013-07-01 01:18:00,50.9,47.5,30.08,WNW,292,0.0,-999.0,88,-99.99,,,0.00,Acu-Link.com,2013-07-01 07:18:00,
2013-07-01 01:34:00,51.8,47.7,30.08,NNE,22,4.7,-999.0,86,-99.99,,,0.00,Acu-Link.com,2013-07-01 07:34:00,
2013-07-01 01:49:00,51.8,46.8,30.08,NNW,337,3.7,-999.0,83,-99.99,,,0.00,Acu-Link.com,2013-07-01 07:49:00,
2013-07-01 02:04:00,50.0,47.5,30.09,South,180,2.2,-999.0,91,-99.99,,,0.00,Acu-Link.com,2013-07-01 08:04:00,
2013-07-01 02:20:00,49.5,47.3,30.08,WSW,247,0.0,-999.0,92,-99.99,,,0.00,Acu-Link.com,2013-07-01 08:20:00,
2013-07-01 02:35:00,48.6,47.8,30.08,WSW,247,0.0,-999.0,97,-99.99,,,0.00,Acu-Link.com,2013-07-01 08:35:00,
2013-07-01 02:50:00,46.8,46.3,30.08,North,0,3.2,-999.0,98,-99.99,,,0.00,Acu-Link.com,2013-07-01 08:50:00,
2013-07-01 03:05:00,45.5,45.0,30.08,NNW,337,1.7,-999.0,98,-99.99,,,0.00,Acu-Link.com,2013-07-01 09:05:00,
2013-07-01 03:20:00,44.8,44.3,30.09,East,90,1.7,-999.0,98,-99.99,,,0.00,Acu-Link.com,2013-07-01 09:20:00,
2013-07-01 03:36:00,43.5,43.0,30.09,SSE,157,0.0,-999.0,98,-99.99,,,0.00,Acu-Link.com,2013-07-01 09:36:00,
2013-07-01 03:51:00,43.2,42.7,30.09,NNW,337,0.0,-999.0,98,-99.99,,,0.00,Acu-Link.com,2013-07-01 09:51:00,
2013-07-01 04:06:00,41.9,41.4,30.09,NE,45,2.2,-999.0,98,-99.99,,,0.00,Acu-Link.com,2013-07-01 10:06:00,
2013-07-01 04:22:00,43.0,42.5,30.09,ENE,67,3.2,-999.0,98,-99.99,,,0.00,Acu-Link.com,2013-07-01 10:22:00,
2013-07-01 04:37:00,45.1,44.6,30.09,NNW,337,3.7,-999.0,98,-99.99,,,0.00,Acu-Link.com,2013-07-01 10:37:00,
2013-07-01 04:52:00,46.0,45.5,30.10,NNE,22,2.7,-999.0,98,-99.99,,,0.00,Acu-Link.com,2013-07-01 10:52:00,
2013-07-01 05:07:00,45.0,44.5,30.11,SW,225,0.0,-999.0,98,-99.99,,,0.00,Acu-Link.com,2013-07-01 11:07:00,
2013-07-01 05:23:00,43.2,42.7,30.11,ENE,67,3.2,-999.0,98,-99.99,,,0.00,Acu-Link.com,2013-07-01 11:23:00,
2013-07-01 05:38:00,41.9,41.4,30.12,NW,315,1.7,-999.0,98,-99.99,,,0.00,Acu-Link.com,2013-07-01 11:38:00,
2013-07-01 05:53:00,41.9,41.4,30.12,North,0,0.0,-999.0,98,-99.99,,,0.00,Acu-Link.com,2013-07-01 11:53:00,
2013-07-01 06:09:00,41.2,40.7,30.12,NE,45,2.2,-999.0,98,-99.99,,,0.00,Acu-Link.com,2013-07-01 12:09:00,
2013-07-01 06:24:00,45.0,44.5,30.13,East,90,0.0,-999.0,98,-99.99,,,0.00,Acu-Link.com,2013-07-01 12:24:00,
2013-07-01 06:39:00,50.7,48.2,30.12,ESE,112,0.0,-999.0,91,-99.99,,,0.00,Acu-Link.com,2013-07-01 12:39:00,
2013-07-01 06:55:00,52.9,46.6,30.13,NE,45,2.7,-999.0,79,-99.99,,,0.00,Acu-Link.com,2013-07-01 12:55:00,
2013-07-01 07:10:00,57.0,47.3,30.13,East,90,0.0,-999.0,70,-99.99,,,0.00,Acu-Link.com,2013-07-01 13:10:00,
2013-07-01 07:25:00,59.4,48.4,30.14,ESE,112,0.0,-999.0,67,-99.99,,,0.00,Acu-Link.com,2013-07-01 13:25:00,
2013-07-01 07:40:00,63.3,50.1,30.14,ESE,112,1.7,-999.0,62,-99.99,,,0.00,Acu-Link.com,2013-07-01 13:40:00,
2013-07-01 07:56:00,64.0,49.4,30.14,SSE,157,1.7,-999.0,59,-99.99,,,0.00,Acu-Link.com,2013-07-01 13:56:00,
2013-07-01 08:11:00,68.7,50.4,30.14,East,90,1.1,-999.0,52,-99.99,,,0.00,Acu-Link.com,2013-07-01 14:11:00,
2013-07-01 08:26:00,70.5,51.0,30.13,NE,45,2.7,-999.0,50,-99.99,,,0.00,Acu-Link.com,2013-07-01 14:26:00,
2013-07-01 08:42:00,72.5,51.7,30.12,ENE,67,3.2,-999.0,48,-99.99,,,0.00,Acu-Link.com,2013-07-01 14:42:00,
2013-07-01 08:57:00,73.2,50.6,30.11,East,90,2.7,-999.0,45,-99.99,,,0.00,Acu-Link.com,2013-07-01 14:57:00,
2013-07-01 09:12:00,74.1,50.8,30.12,ENE,67,2.7,-999.0,44,-99.99,,,0.00,Acu-Link.com,2013-07-01 15:12:00,
2013-07-01 09:27:00,67.8,50.5,30.11,East,90,3.7,-999.0,54,-99.99,,,0.00,Acu-Link.com,2013-07-01 15:27:00,
2013-07-01 09:43:00,66.6,50.4,30.11,SW,225,3.7,-999.0,56,-99.99,,,0.00,Acu-Link.com,2013-07-01 15:43:00,
2013-07-01 09:58:00,67.3,51.1,30.10,South,180,3.2,-999.0,56,-99.99,,,0.00,Acu-Link.com,2013-07-01 15:58:00,
2013-07-01 10:13:00,68.2,50.9,30.09,West,270,3.2,-999.0,54,-99.99,,,0.00,Acu-Link.com,2013-07-01 16:13:00,
2013-07-01 10:28:00,70.3,50.8,30.08,South,180,2.7,-999.0,50,-99.99,,,0.00,Acu-Link.com,2013-07-01 16:28:00,
2013-07-01 10:43:00,72.5,52.8,30.07,South,180,3.7,-999.0,50,-99.99,,,0.00,Acu-Link.com,2013-07-01 16:43:00,
2013-07-01 10:58:00,72.9,52.6,30.07,WNW,292,1.1,-999.0,49,-99.99,,,0.00,Acu-Link.com,2013-07-01 16:58:00,
2013-07-01 11:14:00,76.5,54.2,30.05,NW,315,2.2,-999.0,46,-99.99,,,0.00,Acu-Link.com,2013-07-01 17:14:00,
2013-07-01 11:29:00,77.2,53.0,30.04,SW,225,1.7,-999.0,43,-99.99,,,0.00,Acu-Link.com,2013-07-01 17:29:00,
2013-07-01 11:44:00,78.3,52.0,30.02,West,270,4.7,-999.0,40,-99.99,,,0.00,Acu-Link.com,2013-07-01 17:44:00,
2013-07-01 11:59:00,80.2,50.0,30.02,SW,225,7.8,-999.0,35,-99.99,,,0.00,Acu-Link.com,2013-07-01 17:59:00,
2013-07-01 12:14:00,81.3,51.8,30.00,South,180,6.8,-999.0,36,-99.99,,,0.00,Acu-Link.com,2013-07-01 18:14:00,
2013-07-01 12:29:00,83.3,47.7,30.02,NW,315,3.2,-999.0,29,-99.99,,,0.00,Acu-Link.com,2013-07-01 18:29:00,
2013-07-01 12:45:00,85.3,49.4,29.99,South,180,3.7,-999.0,29,-99.99,,,0.00,Acu-Link.com,2013-07-01 18:45:00,
2013-07-01 13:00:00,85.5,47.7,30.01,SE,135,2.7,-999.0,27,-99.99,,,0.00,Acu-Link.com,2013-07-01 19:00:00,
2013-07-01 13:15:00,86.2,41.7,29.99,NNW,337,8.3,-999.0,21,-99.99,,,0.00,Acu-Link.com,2013-07-01 19:15:00,
2013-07-01 13:30:00,85.6,39.9,29.98,NNW,337,9.4,-999.0,20,-99.99,,,0.00,Acu-Link.com,2013-07-01 19:30:00,
2013-07-01 13:46:00,84.9,35.2,29.97,NNE,22,7.3,-999.0,17,-99.99,,,0.00,Acu-Link.com,2013-07-01 19:46:00,
2013-07-01 14:01:00,86.4,18.2,29.96,NNW,337,8.3,-999.0,8,-99.99,,,0.00,Acu-Link.com,2013-07-01 20:01:00,
2013-07-01 14:16:00,87.6,16.0,29.95,NNE,22,7.3,-999.0,7,-99.99,,,0.00,Acu-Link.com,2013-07-01 20:16:00,
2013-07-01 14:47:00,86.0,-25.3,29.95,North,0,5.3,-999.0,1,-99.99,,,0.00,Acu-Link.com,2013-07-01 20:47:00,
2013-07-01 15:02:00,86.5,-25.0,29.94,NNE,22,6.8,-999.0,1,-99.99,,,0.00,Acu-Link.com,2013-07-01 21:02:00,
2013-07-01 15:17:00,86.0,-3.7,29.95,NNW,337,9.4,-999.0,3,-99.99,,,0.00,Acu-Link.com,2013-07-01 21:17:00,
2013-07-01 15:32:00,81.3,32.3,29.95,NE,45,7.8,-999.0,17,-99.99,,,0.00,Acu-Link.com,2013-07-01 21:32:00,
2013-07-01 15:47:00,79.9,38.8,29.94,NE,45,10.9,-999.0,23,-99.99,,,0.00,Acu-Link.com,2013-07-01 21:47:00,
2013-07-01 16:02:00,84.7,40.4,29.93,NW,315,5.3,-999.0,21,-99.99,,,0.00,Acu-Link.com,2013-07-01 22:02:00,
2013-07-01 16:18:00,86.5,40.6,29.94,South,180,4.2,-999.0,20,-99.99,,,0.00,Acu-Link.com,2013-07-01 22:18:00,
2013-07-01 16:33:00,85.3,40.9,29.94,WSW,247,5.3,-999.0,21,-99.99,,,0.00,Acu-Link.com,2013-07-01 22:33:00,
2013-07-01 16:48:00,80.6,38.2,29.93,North,0,4.7,-999.0,22,-99.99,,,0.00,Acu-Link.com,2013-07-01 22:48:00,
2013-07-01 17:03:00,83.5,40.6,29.93,NW,315,6.8,-999.0,22,-99.99,,,0.00,Acu-Link.com,2013-07-01 23:03:00,
2013-07-01 17:18:00,83.7,40.8,29.92,NNW,337,6.3,-999.0,22,-99.99,,,0.00,Acu-Link.com,2013-07-01 23:18:00,
2013-07-01 17:33:00,80.8,39.5,29.91,North,0,6.3,-999.0,23,-99.99,,,0.00,Acu-Link.com,2013-07-01 23:33:00,
2013-07-01 17:48:00,79.7,42.7,29.93,North,0,7.8,-999.0,27,-99.99,,,0.00,Acu-Link.com,2013-07-01 23:48:00,
2013-07-01 18:03:00,80.8,41.7,29.92,NNE,22,5.8,-999.0,25,-99.99,,,0.00,Acu-Link.com,2013-07-02 00:03:00,
2013-07-01 18:19:00,78.8,40.0,29.93,NE,45,3.2,-999.0,25,-99.99,,,0.00,Acu-Link.com,2013-07-02 00:19:00,
2013-07-01 18:34:00,79.7,40.7,29.92,NNE,22,3.7,-999.0,25,-99.99,,,0.00,Acu-Link.com,2013-07-02 00:34:00,
2013-07-01 18:49:00,79.0,44.0,29.91,NNE,22,4.2,-999.0,29,-99.99,,,0.00,Acu-Link.com,2013-07-02 00:49:00,
2013-07-01 19:04:00,78.6,41.8,29.92,NNE,22,5.3,-999.0,27,-99.99,,,0.00,Acu-Link.com,2013-07-02 01:04:00,
2013-07-01 19:20:00,77.2,41.6,29.93,North,0,4.2,-999.0,28,-99.99,,,0.00,Acu-Link.com,2013-07-02 01:20:00,
2013-07-01 19:35:00,74.7,49.4,29.94,East,90,4.7,-999.0,41,-99.99,,,0.00,Acu-Link.com,2013-07-02 01:35:00,
2013-07-01 19:50:00,72.7,48.9,29.94,ESE,112,10.9,-999.0,43,-99.99,,,0.00,Acu-Link.com,2013-07-02 01:50:00,
2013-07-01 20:05:00,70.3,49.1,29.95,ESE,112,12.5,-999.0,47,-99.99,,,0.00,Acu-Link.com,2013-07-02 02:05:00,
2013-07-01 20:20:00,68.4,49.0,29.96,East,90,8.9,-999.0,50,-99.99,,,0.00,Acu-Link.com,2013-07-02 02:20:00,
2013-07-01 20:35:00,67.6,48.8,29.96,ESE,112,12.5,-999.0,51,-99.99,,,0.00,Acu-Link.com,2013-07-02 02:35:00,
2013-07-01 20:51:00,67.3,48.5,29.97,ESE,112,13.0,-999.0,51,-99.99,,,0.00,Acu-Link.com,2013-07-02 02:51:00,
2013-07-01 21:06:00,66.2,48.0,29.98,ESE,112,5.8,-999.0,52,-99.99,,,0.00,Acu-Link.com,2013-07-02 03:06:00,
2013-07-01 21:21:00,63.0,48.9,29.99,East,90,7.8,-999.0,60,-99.99,,,0.00,Acu-Link.com,2013-07-02 03:21:00,
2013-07-01 21:36:00,60.4,48.6,30.00,East,90,4.2,-999.0,65,-99.99,,,0.00,Acu-Link.com,2013-07-02 03:36:00,
2013-07-01 21:51:00,59.5,48.1,30.01,NNE,22,3.7,-999.0,66,-99.99,,,0.00,Acu-Link.com,2013-07-02 03:51:00,
2013-07-01 22:06:00,60.4,48.2,30.02,NE,45,7.8,-999.0,64,-99.99,,,0.00,Acu-Link.com,2013-07-02 04:06:00,
2013-07-01 22:21:00,60.3,48.1,30.03,NE,45,4.7,-999.0,64,-99.99,,,0.00,Acu-Link.com,2013-07-02 04:21:00,
2013-07-01 22:37:00,59.5,48.5,30.05,NE,45,4.2,-999.0,67,-99.99,,,0.00,Acu-Link.com,2013-07-02 04:37:00,
2013-07-01 22:52:00,59.0,47.7,30.04,NE,45,6.3,-999.0,66,-99.99,,,0.00,Acu-Link.com,2013-07-02 04:52:00,
2013-07-01 23:07:00,59.4,48.0,30.04,NE,45,6.3,-999.0,66,-99.99,,,0.00,Acu-Link.com,2013-07-02 05:07:00,
2013-07-01 23:23:00,59.5,48.1,30.05,ENE,67,8.9,-999.0,66,-99.99,,,0.00,Acu-Link.com,2013-07-02 05:23:00,
2013-07-01 23:38:00,60.3,48.5,30.05,NE,45,7.8,-999.0,65,-99.99,,,0.00,Acu-Link.com,2013-07-02 05:38:00,
2013-07-01 23:53:00,58.3,48.6,30.04,ENE,67,6.8,-999.0,70,-99.99,,,0.00,Acu-Link.com,2013-07-02 05:53:00,